createdAt,value
2022-11-25T00:01:34.290Z,47.80
2022-11-25T00:04:02.970Z,55.03
2022-11-25T00:06:34.081Z,49.45
2022-11-25T00:09:12.876Z,54.97
2022-11-25T00:11:43.139Z,54.78
2022-11-25T00:14:14.909Z,49.40
2022-11-25T00:16:48.169Z,58.85
2022-11-25T00:19:17.507Z,50.38
2022-11-25T00:21:45.748Z,48.40
2022-11-25T00:24:16.202Z,54.22
2022-11-25T00:26:44.562Z,48.10
2022-11-25T00:29:14.438Z,49.78
2022-11-25T00:31:43.640Z,56.20
2022-11-25T00:34:14.475Z,51.80
2022-11-25T00:36:42.767Z,48.80
2022-11-25T00:39:13.826Z,45.95
2022-11-25T00:42:01.685Z,43.28
2022-11-25T00:44:36.468Z,44.97
2022-11-25T00:47:32.012Z,45.85
2022-11-25T00:50:00.222Z,41.92
2022-11-25T00:52:28.834Z,42.55
2022-11-25T00:54:57.136Z,42.33
2022-11-25T00:57:25.368Z,44.10
2022-11-25T00:59:54.485Z,41.53
2022-11-25T01:02:23.276Z,41.72
2022-11-25T01:04:51.653Z,45.72
2022-11-25T01:07:20.145Z,42.17
2022-11-25T01:09:49.394Z,39.38
2022-11-25T01:12:17.761Z,42.55
2022-11-25T01:14:46.049Z,40.60
2022-11-25T01:17:15.926Z,44.80
2022-11-25T01:19:44.195Z,47.25
2022-11-25T01:22:12.286Z,43.80
2022-11-25T01:24:44.144Z,47.30
2022-11-25T01:27:12.341Z,49.13
2022-11-25T01:29:41.716Z,51.05
2022-11-25T01:32:10.055Z,49.90
2022-11-25T01:34:40.227Z,50.83
2022-11-25T01:37:08.446Z,49.00
2022-11-25T01:39:36.623Z,50.55
2022-11-25T01:42:04.956Z,52.35
2022-11-25T01:44:36.373Z,48.40
2022-11-25T01:47:16.200Z,55.15
2022-11-25T01:49:53.374Z,46.70
2022-11-25T01:52:37.947Z,46.42
2022-11-25T01:55:14.270Z,46.83
2022-11-25T01:58:04.451Z,52.40
2022-11-25T02:00:33.077Z,55.22
2022-11-25T02:03:01.650Z,57.33
2022-11-25T02:06:00.517Z,49.60
2022-11-25T02:08:32.964Z,51.55
2022-11-25T02:11:04.746Z,49.58
2022-11-25T02:13:33.768Z,52.53
2022-11-25T02:16:02.079Z,47.35
2022-11-25T02:18:30.452Z,47.55
2022-11-25T02:20:58.824Z,43.65
2022-11-25T02:24:07.882Z,44.53
2022-11-25T02:26:36.199Z,52.20
2022-11-25T02:29:04.688Z,50.85
2022-11-25T02:31:32.917Z,49.55
2022-11-25T02:34:01.652Z,46.67
2022-11-25T02:36:29.913Z,47.70
2022-11-25T02:39:03.310Z,46.80
2022-11-25T02:41:45.214Z,47.22
2022-11-25T02:44:14.756Z,49.13
2022-11-25T02:46:43.903Z,46.70
2022-11-25T02:49:12.152Z,49.85
2022-11-25T02:51:45.205Z,47.45
2022-11-25T02:54:15.779Z,43.95
2022-11-25T02:56:44.525Z,43.97
2022-11-25T02:59:12.936Z,43.60
2022-11-25T03:01:41.417Z,43.10
2022-11-25T03:04:11.521Z,42.72
2022-11-25T03:06:39.890Z,42.75
2022-11-25T03:09:08.728Z,41.20
2022-11-25T03:11:58.217Z,44.35
2022-11-25T03:14:26.499Z,44.30
2022-11-25T03:16:54.799Z,42.70
2022-11-25T03:19:22.982Z,40.53
2022-11-25T03:21:53.552Z,39.80
2022-11-25T03:24:21.853Z,43.00
2022-11-25T03:26:51.150Z,47.25
2022-11-25T03:29:19.947Z,39.25
2022-11-25T03:31:48.570Z,47.55
2022-11-25T03:34:16.947Z,45.35
2022-11-25T03:36:45.455Z,44.45
2022-11-25T03:39:13.852Z,46.65
2022-11-25T03:41:43.222Z,43.40
2022-11-25T03:44:11.407Z,46.83
2022-11-25T03:46:39.725Z,47.15
2022-11-25T03:49:08.832Z,41.55
2022-11-25T03:51:37.523Z,45.58
2022-11-25T03:54:06.432Z,43.42
2022-11-25T03:56:54.592Z,42.78
2022-11-25T03:59:23.154Z,43.95
2022-11-25T04:01:52.465Z,43.85
2022-11-25T04:04:20.735Z,42.42
2022-11-25T04:06:49.118Z,43.40
2022-11-25T04:09:17.317Z,44.60
2022-11-25T04:12:04.197Z,44.88
2022-11-25T04:14:43.364Z,43.67
2022-11-25T04:17:11.874Z,47.80
2022-11-25T04:19:40.381Z,45.97
2022-11-25T04:22:09.204Z,40.28
2022-11-25T04:24:40.489Z,41.25
2022-11-25T04:27:09.561Z,46.03
2022-11-25T04:29:39.215Z,45.28
2022-11-25T04:32:07.593Z,46.70
2022-11-25T04:34:36.284Z,42.88
2022-11-25T04:37:04.764Z,43.28
2022-11-25T04:39:33.170Z,45.78
2022-11-25T04:42:27.422Z,45.92
2022-11-25T04:45:20.991Z,44.40
2022-11-25T04:47:48.284Z,45.00
2022-11-25T04:50:19.863Z,42.15
2022-11-25T04:53:00.698Z,47.63
2022-11-25T04:55:32.308Z,40.00
2022-11-25T04:58:02.789Z,43.22
2022-11-25T05:00:33.339Z,39.67
2022-11-25T05:03:02.663Z,48.75
2022-11-25T05:05:32.805Z,42.35
2022-11-25T05:08:00.930Z,41.45
2022-11-25T05:10:29.557Z,43.28
2022-11-25T05:12:58.882Z,44.13
2022-11-25T05:15:27.118Z,46.42
2022-11-25T05:17:56.469Z,44.55
2022-11-25T05:20:40.754Z,39.35
2022-11-25T05:23:09.423Z,41.70
2022-11-25T05:25:38.690Z,49.72
2022-11-25T05:28:34.662Z,45.17
2022-11-25T05:31:03.042Z,45.38
2022-11-25T05:33:34.875Z,45.13
2022-11-25T05:36:05.976Z,45.25
2022-11-25T05:38:42.178Z,42.72
2022-11-25T05:41:13.377Z,45.42
2022-11-25T05:43:44.011Z,45.63
2022-11-25T05:46:13.457Z,44.78
2022-11-25T05:48:52.536Z,49.28
2022-11-25T05:51:22.228Z,47.47
2022-11-25T05:53:52.832Z,44.85
2022-11-25T05:56:24.217Z,46.58
2022-11-25T05:59:18.541Z,47.72
2022-11-25T06:02:01.050Z,49.28
2022-11-25T06:04:29.258Z,42.13
2022-11-25T06:06:57.458Z,48.42
2022-11-25T06:09:25.867Z,42.67
2022-11-25T06:11:54.249Z,45.55
2022-11-25T06:14:22.678Z,48.40
2022-11-25T06:16:52.377Z,43.10
2022-11-25T06:21:53.541Z,52.95
2022-11-25T06:24:21.781Z,54.03
2022-11-25T06:26:56.196Z,42.08
2022-11-25T06:29:24.589Z,50.95
2022-11-25T06:31:53.494Z,51.63
2022-11-25T06:34:42.781Z,52.53
2022-11-25T06:37:40.694Z,49.85
2022-11-25T06:40:09.684Z,44.03
2022-11-25T06:42:44.384Z,47.83
2022-11-25T06:45:12.678Z,45.60
2022-11-25T06:47:41.019Z,46.95
2022-11-25T06:50:09.811Z,47.95
2022-11-25T06:52:38.924Z,54.78
2022-11-25T06:55:07.788Z,51.83
2022-11-25T06:57:39.402Z,51.25
2022-11-25T07:00:09.292Z,49.08
2022-11-25T07:02:42.827Z,42.85
2022-11-25T07:05:13.751Z,51.40
2022-11-25T07:07:42.047Z,47.42
2022-11-25T07:10:10.665Z,44.38
2022-11-25T07:12:38.882Z,43.20
2022-11-25T07:15:07.489Z,43.47
2022-11-25T07:17:35.697Z,42.45
2022-11-25T07:20:04.375Z,47.58
2022-11-25T07:22:32.659Z,43.63
2022-11-25T07:25:00.842Z,62.92
2022-11-25T07:27:29.012Z,62.63
2022-11-25T07:30:41.606Z,52.40
2022-11-25T07:32:45.342Z,46.58
2022-11-25T07:35:13.563Z,38.10
2022-11-25T07:37:41.731Z,41.50
2022-11-25T07:40:10.371Z,42.88
2022-11-25T07:42:41.531Z,38.67
2022-11-25T07:45:11.205Z,33.93
2022-11-25T07:47:45.610Z,36.67
2022-11-25T07:50:13.852Z,31.83
2022-11-25T07:52:42.087Z,30.48
2022-11-25T07:55:10.455Z,33.08
2022-11-25T07:57:38.628Z,41.50
2022-11-25T08:00:07.653Z,41.55
2022-11-25T08:02:40.113Z,39.45
2022-11-25T08:05:08.740Z,50.70
2022-11-25T08:07:37.156Z,53.90
2022-11-25T08:10:05.944Z,46.70
2022-11-25T08:12:34.875Z,48.78
2022-11-25T08:15:03.283Z,52.55
2022-11-25T08:17:31.751Z,52.63
2022-11-25T08:20:00.110Z,47.85
2022-11-25T08:22:29.094Z,46.08
2022-11-25T08:24:57.291Z,56.55
2022-11-25T08:27:25.486Z,54.25
2022-11-25T08:29:53.749Z,49.30
2022-11-25T08:32:22.261Z,50.80
2022-11-25T08:34:50.552Z,52.42
2022-11-25T08:37:18.845Z,44.15
2022-11-25T08:39:53.470Z,47.72
2022-11-25T08:42:22.253Z,44.95
2022-11-25T08:44:56.276Z,42.90
2022-11-25T08:47:25.849Z,41.92
2022-11-25T08:49:55.188Z,38.28
2022-11-25T08:52:24.334Z,40.70
2022-11-25T08:54:52.547Z,36.50
2022-11-25T08:57:20.730Z,34.65
2022-11-25T08:59:48.988Z,37.15
2022-11-25T09:02:18.864Z,35.28
2022-11-25T09:04:47.238Z,35.13
2022-11-25T09:07:16.751Z,37.05
2022-11-25T09:09:45.213Z,31.95
2022-11-25T09:12:13.469Z,34.00
2022-11-25T09:14:41.736Z,37.47
2022-11-25T09:17:11.389Z,36.28
2022-11-25T09:19:39.862Z,37.95
2022-11-25T09:22:08.231Z,34.85
2022-11-25T09:24:37.198Z,36.90
2022-11-25T09:27:05.402Z,34.70
2022-11-25T09:29:33.880Z,35.03
2022-11-25T09:32:02.350Z,34.78
2022-11-25T09:34:31.745Z,33.90
2022-11-25T09:36:59.970Z,36.55
2022-11-25T09:39:29.951Z,33.65
2022-11-25T09:42:29.342Z,33.80
2022-11-25T09:45:38.838Z,34.08
2022-11-25T09:48:22.880Z,32.15
2022-11-25T09:51:08.020Z,28.85
2022-11-25T09:53:51.597Z,30.13
2022-11-25T10:01:29.067Z,28.95
2022-11-25T10:04:13.211Z,27.17
2022-11-25T10:06:55.252Z,28.75
2022-11-25T10:09:29.030Z,28.63
2022-11-25T10:14:43.914Z,29.90
2022-11-25T10:17:19.105Z,34.20
2022-11-25T10:19:57.274Z,34.20
2022-11-25T10:22:28.414Z,33.97
2022-11-25T10:25:14.668Z,23.83
2022-11-25T10:27:43.329Z,29.70
2022-11-25T10:30:17.267Z,29.77
2022-11-25T10:33:02.504Z,28.83
2022-11-25T10:35:41.575Z,32.25
2022-11-25T10:38:41.505Z,33.78
2022-11-25T10:41:17.761Z,28.30
2022-11-25T10:43:48.343Z,28.65
2022-11-25T10:47:11.152Z,34.40
2022-11-25T10:50:06.045Z,32.28
2022-11-25T10:52:49.133Z,27.65
2022-11-25T10:55:26.790Z,33.40
2022-11-25T10:57:55.877Z,29.92
2022-11-25T11:00:36.279Z,31.88
2022-11-25T11:03:24.155Z,25.58
2022-11-25T11:05:56.705Z,22.55
2022-11-25T11:08:28.984Z,25.83
2022-11-25T11:11:19.211Z,24.27
2022-11-25T11:13:50.589Z,25.42
2022-11-25T11:16:52.350Z,24.02
2022-11-25T11:19:29.452Z,24.55
2022-11-25T11:22:14.378Z,21.80
2022-11-25T11:24:44.022Z,22.67
2022-11-25T11:27:35.989Z,24.45
2022-11-25T11:30:29.474Z,24.20
2022-11-25T11:33:23.675Z,21.40
2022-11-25T11:36:26.238Z,20.92
2022-11-25T11:39:11.778Z,23.17
2022-11-25T11:41:54.298Z,20.27
2022-11-25T11:45:06.958Z,22.30
2022-11-25T11:47:44.362Z,21.58
2022-11-25T11:50:21.404Z,23.48
2022-11-25T11:53:10.962Z,22.00
2022-11-25T11:56:33.511Z,19.52
2022-11-25T11:58:57.625Z,21.67
2022-11-25T12:01:34.895Z,17.13
2022-11-25T12:04:30.715Z,19.13
2022-11-25T12:07:18.719Z,17.40
2022-11-25T12:10:08.498Z,16.20
2022-11-25T12:12:40.307Z,20.13
2022-11-25T12:15:50.834Z,18.10
2022-11-25T12:18:35.568Z,18.88
2022-11-25T12:21:06.887Z,18.90
2022-11-25T12:23:42.843Z,20.88
2022-11-25T12:26:21.590Z,18.05
2022-11-25T12:29:02.538Z,19.95
2022-11-25T12:31:46.607Z,17.73
2022-11-25T12:34:32.642Z,18.92
2022-11-25T12:37:15.012Z,14.68
2022-11-25T12:39:53.683Z,15.80
2022-11-25T12:42:26.206Z,12.13
2022-11-25T12:45:05.328Z,15.10
2022-11-25T12:47:33.797Z,13.68
2022-11-25T12:50:02.179Z,10.48
2022-11-25T12:53:13.602Z,11.95
2022-11-25T12:55:42.376Z,10.45
2022-11-25T12:58:53.936Z,11.68
2022-11-25T13:01:25.653Z,13.82
2022-11-25T13:04:15.487Z,12.95
2022-11-25T13:07:20.648Z,12.23
2022-11-25T13:10:07.383Z,8.73
2022-11-25T13:12:56.944Z,11.70
2022-11-25T13:15:43.145Z,10.93
2022-11-25T13:18:23.889Z,10.45
2022-11-25T13:20:53.758Z,12.93
2022-11-25T13:23:27.390Z,10.10
2022-11-25T13:26:32.722Z,12.35
2022-11-25T13:29:14.414Z,13.32
2022-11-25T13:32:01.746Z,11.73
2022-11-25T13:34:32.049Z,11.90
2022-11-25T13:37:02.090Z,11.18
2022-11-25T13:39:36.096Z,12.70
2022-11-25T13:42:25.512Z,15.95
2022-11-25T13:44:59.343Z,11.95
2022-11-25T13:47:44.749Z,13.88
2022-11-25T13:50:21.824Z,14.07
2022-11-25T13:53:18.237Z,13.15
2022-11-25T13:55:50.107Z,11.57
2022-11-25T13:58:26.022Z,16.70
2022-11-25T14:01:24.820Z,15.13
2022-11-25T14:04:00.375Z,12.88
2022-11-25T14:06:52.593Z,15.65
2022-11-25T14:09:51.989Z,12.60
2022-11-25T14:12:43.681Z,12.60
2022-11-25T14:15:38.347Z,16.55
2022-11-25T14:18:53.218Z,17.98
2022-11-25T14:21:37.710Z,18.65
2022-11-25T14:24:33.167Z,15.02
2022-11-25T14:27:03.424Z,13.23
2022-11-25T14:29:40.617Z,20.80
2022-11-25T14:32:21.914Z,16.75
2022-11-25T14:34:56.659Z,16.90
2022-11-25T14:37:37.420Z,13.60
2022-11-25T14:40:34.790Z,20.70
2022-11-25T14:43:12.118Z,16.60
2022-11-25T14:45:40.701Z,18.48
2022-11-25T14:48:21.915Z,17.77
2022-11-25T14:51:07.491Z,16.48
2022-11-25T14:53:49.701Z,17.25
2022-11-25T14:56:31.301Z,17.75
2022-11-25T14:59:00.626Z,17.65
2022-11-25T15:01:34.814Z,17.30
2022-11-25T15:04:15.713Z,17.73
2022-11-25T15:06:51.260Z,18.00
2022-11-25T15:09:24.232Z,17.52
2022-11-25T15:11:57.894Z,21.52
2022-11-25T15:14:29.517Z,17.63
2022-11-25T15:16:58.844Z,22.20
2022-11-25T15:19:34.186Z,20.00
2022-11-25T15:22:22.388Z,20.38
2022-11-25T15:24:55.785Z,17.88
2022-11-25T15:27:27.626Z,23.67
2022-11-25T15:29:57.625Z,29.88
2022-11-25T15:32:27.480Z,23.88
2022-11-25T15:34:58.430Z,23.63
2022-11-25T15:37:27.632Z,24.48
2022-11-25T15:40:31.385Z,22.85
2022-11-25T15:43:02.389Z,26.42
2022-11-25T15:45:46.576Z,25.52
2022-11-25T15:48:38.643Z,23.85
2022-11-25T15:51:53.114Z,24.33
2022-11-25T15:57:11.837Z,21.70
2022-11-25T16:00:04.802Z,21.50
2022-11-25T16:02:43.948Z,26.60
2022-11-25T16:05:17.085Z,26.88
2022-11-25T16:07:54.601Z,20.55
2022-11-25T16:10:50.102Z,21.70
2022-11-25T16:13:30.632Z,29.77
2022-11-25T16:16:07.512Z,27.08
2022-11-25T16:18:41.791Z,22.77
2022-11-25T16:21:15.591Z,25.52
2022-11-25T16:23:59.590Z,25.00
2022-11-25T16:27:00.835Z,25.83
2022-11-25T16:29:47.438Z,31.88
2022-11-25T16:32:18.280Z,24.17
2022-11-25T16:34:46.867Z,27.65
2022-11-25T16:37:15.698Z,24.73
2022-11-25T16:39:43.911Z,26.40
2022-11-25T16:42:22.548Z,26.73
2022-11-25T16:44:52.343Z,28.02
2022-11-25T16:47:22.557Z,29.17
2022-11-25T16:49:50.769Z,33.20
2022-11-25T16:52:19.046Z,33.83
2022-11-25T16:54:48.590Z,29.05
2022-11-25T16:57:21.987Z,31.35
2022-11-25T16:59:57.265Z,29.60
2022-11-25T17:02:27.266Z,25.27
2022-11-25T17:04:59.940Z,29.38
2022-11-25T17:07:33.103Z,28.80
2022-11-25T17:10:02.533Z,30.77
2022-11-25T17:12:33.923Z,37.67
2022-11-25T17:15:05.636Z,29.85
2022-11-25T17:17:34.905Z,37.08
2022-11-25T17:20:03.735Z,29.08
2022-11-25T17:22:37.780Z,34.47
2022-11-25T17:25:08.468Z,30.88
2022-11-25T17:27:40.782Z,30.70
2022-11-25T17:30:18.861Z,31.95
2022-11-25T17:32:47.993Z,33.40
2022-11-25T17:35:21.834Z,29.73
2022-11-25T17:37:50.219Z,35.00
2022-11-25T17:40:18.611Z,33.63
2022-11-25T17:42:49.872Z,37.10
2022-11-25T17:45:20.909Z,35.58
2022-11-25T17:47:49.190Z,33.78
2022-11-25T17:50:23.293Z,30.20
2022-11-25T17:52:52.089Z,30.65
2022-11-25T17:55:22.848Z,31.67
2022-11-25T17:57:51.258Z,34.75
2022-11-25T18:00:22.319Z,34.80
2022-11-25T18:02:51.142Z,31.38
2022-11-25T18:05:22.390Z,31.52
2022-11-25T18:07:51.293Z,36.25
2022-11-25T18:10:24.431Z,34.88
2022-11-25T18:12:57.055Z,29.40
2022-11-25T18:15:28.545Z,35.45
2022-11-25T18:18:06.938Z,32.47
2022-11-25T18:20:35.235Z,29.52
2022-11-25T18:23:03.716Z,40.00
2022-11-25T18:25:33.987Z,48.03
2022-11-25T18:28:04.134Z,44.15
2022-11-25T18:30:35.373Z,42.97
2022-11-25T18:33:06.206Z,41.78
2022-11-25T18:35:36.813Z,40.55
2022-11-25T18:38:06.345Z,41.53
2022-11-25T18:40:36.887Z,39.80
2022-11-25T18:43:06.315Z,42.47
2022-11-25T18:45:39.442Z,39.00
2022-11-25T18:48:27.195Z,43.42
2022-11-25T18:50:57.418Z,37.45
2022-11-25T18:53:25.723Z,38.22
2022-11-25T18:55:54.306Z,38.78
2022-11-25T18:58:27.166Z,47.08
2022-11-25T19:01:02.187Z,40.65
2022-11-25T19:03:30.465Z,36.65
2022-11-25T19:06:00.802Z,38.15
2022-11-25T19:08:29.857Z,37.85
2022-11-25T19:10:58.267Z,34.95
2022-11-25T19:13:33.286Z,34.35
2022-11-25T19:16:12.915Z,45.80
2022-11-25T19:18:46.438Z,43.28
2022-11-25T19:21:19.719Z,40.42
2022-11-25T19:26:27.878Z,47.13
2022-11-25T19:29:02.629Z,42.60
2022-11-25T19:31:33.145Z,38.38
2022-11-25T19:34:02.707Z,44.22
2022-11-25T19:36:31.830Z,41.10
2022-11-25T19:39:00.178Z,42.60
2022-11-25T19:41:28.509Z,38.70
2022-11-25T19:43:56.887Z,40.10
2022-11-25T19:46:46.210Z,44.53
2022-11-25T19:49:20.043Z,39.50
2022-11-25T19:51:48.999Z,41.00
2022-11-25T19:54:19.285Z,39.08
2022-11-25T19:56:47.564Z,42.85
2022-11-25T19:59:15.834Z,39.53
2022-11-25T20:01:45.456Z,48.85
2022-11-25T20:04:22.170Z,50.75
2022-11-25T20:06:50.766Z,49.38
2022-11-25T20:09:18.970Z,51.50
2022-11-25T20:11:47.535Z,57.45
2022-11-25T20:14:15.738Z,46.88
2022-11-25T20:16:44.040Z,49.75
2022-11-25T20:19:18.207Z,47.05
2022-11-25T20:21:46.938Z,54.05
2022-11-25T20:24:18.977Z,55.95
2022-11-25T20:26:48.665Z,51.10
2022-11-25T20:29:27.372Z,56.17
2022-11-25T20:31:59.151Z,62.22
2022-11-25T20:34:28.409Z,52.50
2022-11-25T20:36:56.790Z,64.40
2022-11-25T20:39:25.469Z,55.30
2022-11-25T20:41:53.872Z,53.63
2022-11-25T20:44:22.441Z,54.08
2022-11-25T20:46:50.642Z,58.60
2022-11-25T20:49:27.259Z,49.50
2022-11-25T20:51:57.418Z,48.60
2022-11-25T20:54:25.790Z,49.05
2022-11-25T20:56:59.712Z,43.83
2022-11-25T20:59:28.764Z,50.25
2022-11-25T21:01:57.273Z,51.40
2022-11-25T21:04:25.595Z,45.55
2022-11-25T21:06:54.335Z,50.58
2022-11-25T21:09:26.400Z,46.05
2022-11-25T21:11:54.783Z,47.97
2022-11-25T21:14:22.944Z,49.00
2022-11-25T21:16:51.148Z,51.38
2022-11-25T21:19:19.887Z,53.40
2022-11-25T21:21:50.629Z,54.08
2022-11-25T21:24:42.660Z,48.25
2022-11-25T21:27:19.941Z,48.33
2022-11-25T21:29:51.279Z,55.20
2022-11-25T21:32:27.765Z,50.38
2022-11-25T21:34:57.806Z,47.22
2022-11-25T21:37:32.281Z,58.55
2022-11-25T21:40:00.650Z,60.25
2022-11-25T21:42:31.549Z,60.55
2022-11-25T21:44:59.832Z,58.83
2022-11-25T21:47:30.385Z,62.33
2022-11-25T21:50:01.891Z,63.05
2022-11-25T21:52:30.129Z,58.75
2022-11-25T21:54:58.429Z,57.40
2022-11-25T21:57:29.000Z,53.85
2022-11-25T22:00:00.065Z,54.72
2022-11-25T22:02:28.330Z,52.15
2022-11-25T22:04:58.449Z,53.45
2022-11-25T22:07:30.751Z,50.92
2022-11-25T22:09:59.325Z,57.55
2022-11-25T22:12:30.552Z,48.25
2022-11-25T22:14:59.506Z,52.78
2022-11-25T22:17:29.941Z,58.25
2022-11-25T22:19:58.758Z,54.40
2022-11-25T22:22:27.197Z,51.00
2022-11-25T22:24:55.381Z,49.00
2022-11-25T22:27:25.957Z,49.50
2022-11-25T22:29:55.591Z,52.42
2022-11-25T22:32:25.375Z,56.47
2022-11-25T22:34:53.555Z,50.22
2022-11-25T22:37:24.692Z,52.45
2022-11-25T22:39:53.402Z,45.67
2022-11-25T22:42:28.289Z,57.05
2022-11-25T22:44:57.865Z,58.58
2022-11-25T22:47:32.651Z,47.30
2022-11-25T22:50:04.168Z,44.22
2022-11-25T22:52:35.404Z,47.92
2022-11-25T22:55:25.821Z,47.00
2022-11-25T22:57:56.847Z,51.92
2022-11-25T23:00:28.290Z,42.28
2022-11-25T23:02:59.212Z,44.85
2022-11-25T23:05:39.639Z,39.35
2022-11-25T23:08:24.370Z,51.30
2022-11-25T23:10:53.063Z,47.95
2022-11-25T23:13:23.546Z,44.97
2022-11-25T23:15:55.228Z,45.00
2022-11-25T23:18:35.291Z,41.35
2022-11-25T23:21:19.473Z,42.10
2022-11-25T23:23:47.734Z,47.17
2022-11-25T23:26:16.304Z,46.05
2022-11-25T23:28:44.519Z,41.10
2022-11-25T23:31:14.512Z,45.40
2022-11-25T23:33:46.034Z,44.92
2022-11-25T23:36:27.211Z,36.28
2022-11-25T23:38:58.221Z,42.03
2022-11-25T23:41:32.593Z,39.25
2022-11-25T23:44:15.099Z,40.75
2022-11-25T23:46:44.331Z,43.70
2022-11-25T23:49:21.607Z,43.60
2022-11-25T23:51:50.337Z,40.28
2022-11-25T23:54:21.728Z,42.60
2022-11-25T23:56:50.012Z,41.15
2022-11-25T23:59:18.525Z,39.67
